sensor_id;sensor_type;location;lat;lon;timestamp;pressure;altitude;pressure_sealevel;temperature;humidity
4273;BME280;63887;53.656;9.810;2023-02-19T00:00:34;101568.03;;;3.61;100.00
4273;BME280;63887;53.656;9.810;2023-02-19T00:03:01;101563.69;;;3.61;100.00
4273;BME280;63887;53.656;9.810;2023-02-19T00:05:27;101562.72;;;3.68;100.00
4273;BME280;63887;53.656;9.810;2023-02-19T00:07:54;101561.91;;;3.65;100.00
4273;BME280;63887;53.656;9.810;2023-02-19T00:10:21;101566.13;;;3.73;100.00
4273;BME280;63887;53.656;9.810;2023-02-19T00:12:48;101569.59;;;3.72;100.00
4273;BME280;63887;53.656;9.810;2023-02-19T00:15:16;101560.88;;;3.78;100.00
4273;BME280;63887;53.656;9.810;2023-02-19T00:17:42;101558.31;;;3.75;100.00
4273;BME280;63887;53.656;9.810;2023-02-19T00:20:09;101563.44;;;3.79;100.00
4273;BME280;63887;53.656;9.810;2023-02-19T00:22:35;101570.41;;;3.76;100.00
4273;BME280;63887;53.656;9.810;2023-02-19T00:25:02;101570.44;;;3.74;100.00
4273;BME280;63887;53.656;9.810;2023-02-19T00:27:28;101570.47;;;3.73;100.00
4273;BME280;63887;53.656;9.810;2023-02-19T00:29:55;101565.28;;;3.70;100.00
4273;BME280;63887;53.656;9.810;2023-02-19T00:32:22;101561.81;;;3.71;100.00
4273;BME280;63887;53.656;9.810;2023-02-19T00:34:49;101557.53;;;3.68;100.00
4273;BME280;63887;53.656;9.810;2023-02-19T00:37:15;101569.63;;;3.69;100.00
4273;BME280;63887;53.656;9.810;2023-02-19T00:39:41;101569.63;;;3.69;100.00
4273;BME280;63887;53.656;9.810;2023-02-19T00:42:08;101575.75;;;3.64;100.00
4273;BME280;63887;53.656;9.810;2023-02-19T00:44:34;101565.41;;;3.62;100.00
4273;BME280;63887;53.656;9.810;2023-02-19T00:47:00;101574.00;;;3.64;100.00
4273;BME280;63887;53.656;9.810;2023-02-19T00:49:28;101575.75;;;3.64;100.00
4273;BME280;63887;53.656;9.810;2023-02-19T00:51:54;101577.53;;;3.60;100.00
4273;BME280;63887;53.656;9.810;2023-02-19T00:54:21;101583.53;;;3.64;100.00
4273;BME280;63887;53.656;9.810;2023-02-19T00:56:48;101583.47;;;3.68;100.00
4273;BME280;63887;53.656;9.810;2023-02-19T00:59:14;101576.56;;;3.67;100.00
4273;BME280;63887;53.656;9.810;2023-02-19T01:01:41;101581.69;;;3.70;100.00
4273;BME280;63887;53.656;9.810;2023-02-19T01:04:09;101584.31;;;3.69;100.00
4273;BME280;63887;53.656;9.810;2023-02-19T01:06:37;101580.00;;;3.69;100.00
4273;BME280;63887;53.656;9.810;2023-02-19T01:09:04;101584.28;;;3.73;100.00
4273;BME280;63887;53.656;9.810;2023-02-19T01:11:31;101579.09;;;3.72;100.00
4273;BME280;63887;53.656;9.810;2023-02-19T01:13:57;101591.28;;;3.67;100.00
4273;BME280;63887;53.656;9.810;2023-02-19T01:16:24;101591.22;;;3.70;100.00
4273;BME280;63887;53.656;9.810;2023-02-19T01:18:52;101589.56;;;3.66;100.00
4273;BME280;63887;53.656;9.810;2023-02-19T01:21:20;101595.56;;;3.69;100.00
4273;BME280;63887;53.656;9.810;2023-02-19T01:23:48;101594.69;;;3.70;100.00
4273;BME280;63887;53.656;9.810;2023-02-19T01:26:16;101592.94;;;3.74;100.00
4273;BME280;63887;53.656;9.810;2023-02-19T01:28:43;101594.63;;;3.76;100.00
4273;BME280;63887;53.656;9.810;2023-02-19T01:31:11;101593.75;;;3.76;100.00
4273;BME280;63887;53.656;9.810;2023-02-19T01:33:38;101595.44;;;3.78;100.00
4273;BME280;63887;53.656;9.810;2023-02-19T01:36:05;101587.69;;;3.77;100.00
4273;BME280;63887;53.656;9.810;2023-02-19T01:38:32;101591.00;;;3.88;100.00
4273;BME280;63887;53.656;9.810;2023-02-19T01:41:03;101592.66;;;3.92;100.00
4273;BME280;63887;53.656;9.810;2023-02-19T01:43:30;101584.06;;;3.88;99.95
4273;BME280;63887;53.656;9.810;2023-02-19T01:45:57;101588.44;;;3.83;99.20
4273;BME280;63887;53.656;9.810;2023-02-19T01:48:24;101591.00;;;3.88;98.95
4273;BME280;63887;53.656;9.810;2023-02-19T01:50:52;101589.28;;;3.85;98.77
4273;BME280;63887;53.656;9.810;2023-02-19T01:53:20;101590.06;;;3.94;98.08
4273;BME280;63887;53.656;9.810;2023-02-19T01:55:48;101584.00;;;3.93;97.08
4273;BME280;63887;53.656;9.810;2023-02-19T01:58:17;101586.66;;;3.88;98.29
4273;BME280;63887;53.656;9.810;2023-02-19T02:00:44;101584.22;;;3.78;99.10
4273;BME280;63887;53.656;9.810;2023-02-19T02:03:10;101586.03;;;3.73;99.05
4273;BME280;63887;53.656;9.810;2023-02-19T02:05:40;101581.59;;;3.79;99.81
4273;BME280;63887;53.656;9.810;2023-02-19T02:08:09;101589.41;;;3.78;99.71
4273;BME280;63887;53.656;9.810;2023-02-19T02:10:55;101587.56;;;3.84;97.62
4273;BME280;63887;53.656;9.810;2023-02-19T02:13:23;101586.00;;;3.74;98.74
4273;BME280;63887;53.656;9.810;2023-02-19T02:15:51;101581.69;;;3.70;98.75
4273;BME280;63887;53.656;9.810;2023-02-19T02:18:23;101590.31;;;3.75;98.68
4273;BME280;63887;53.656;9.810;2023-02-19T02:21:02;101588.59;;;3.71;98.13
4273;BME280;63887;53.656;9.810;2023-02-19T02:23:34;101591.19;;;3.74;98.56
4273;BME280;63887;53.656;9.810;2023-02-19T02:26:09;101592.09;;;3.70;97.88
4273;BME280;63887;53.656;9.810;2023-02-19T02:28:44;101595.59;;;3.66;98.85
4273;BME280;63887;53.656;9.810;2023-02-19T02:31:19;101593.06;;;3.62;99.30
4273;BME280;63887;53.656;9.810;2023-02-19T02:33:50;101599.09;;;3.65;99.34
4273;BME280;63887;53.656;9.810;2023-02-19T02:36:20;101601.41;;;3.85;96.73
4273;BME280;63887;53.656;9.810;2023-02-19T02:38:48;101595.59;;;3.66;97.03
4273;BME280;63887;53.656;9.810;2023-02-19T02:41:18;101595.59;;;3.66;97.48
4273;BME280;63887;53.656;9.810;2023-02-19T02:43:45;101593.97;;;3.59;97.07
4273;BME280;63887;53.656;9.810;2023-02-19T02:46:11;101591.22;;;3.70;96.73
4273;BME280;63887;53.656;9.810;2023-02-19T02:48:40;101597.44;;;3.59;96.49
4273;BME280;63887;53.656;9.810;2023-02-19T02:51:10;101585.41;;;3.51;96.94
4273;BME280;63887;53.656;9.810;2023-02-19T02:53:45;101581.22;;;3.42;97.23
4273;BME280;63887;53.656;9.810;2023-02-19T02:56:31;101582.94;;;3.42;97.95
4273;BME280;63887;53.656;9.810;2023-02-19T02:58:59;101583.91;;;3.35;98.31
4273;BME280;63887;53.656;9.810;2023-02-19T03:01:28;101583.88;;;3.36;98.32
4273;BME280;63887;53.656;9.810;2023-02-19T03:04:15;101586.53;;;3.32;98.15
4273;BME280;63887;53.656;9.810;2023-02-19T03:06:46;101578.78;;;3.28;98.98
4273;BME280;63887;53.656;9.810;2023-02-19T03:09:16;101586.56;;;3.25;99.80
4273;BME280;63887;53.656;9.810;2023-02-19T03:11:44;101587.50;;;3.21;99.93
4273;BME280;63887;53.656;9.810;2023-02-19T03:14:30;101591.84;;;3.19;100.00
4273;BME280;63887;53.656;9.810;2023-02-19T03:17:17;101604.88;;;3.13;100.00
4273;BME280;63887;53.656;9.810;2023-02-19T03:20:06;101598.00;;;3.09;100.00
4273;BME280;63887;53.656;9.810;2023-02-19T03:22:35;101605.75;;;3.11;100.00
4273;BME280;63887;53.656;9.810;2023-02-19T03:25:03;101605.78;;;3.08;100.00
4273;BME280;63887;53.656;9.810;2023-02-19T03:27:48;101609.22;;;3.10;100.00
4273;BME280;63887;53.656;9.810;2023-02-19T03:30:15;101617.84;;;3.10;100.00
4273;BME280;63887;53.656;9.810;2023-02-19T03:32:44;101621.28;;;3.12;100.00
4273;BME280;63887;53.656;9.810;2023-02-19T03:35:14;101619.56;;;3.11;100.00
4273;BME280;63887;53.656;9.810;2023-02-19T03:37:43;101614.38;;;3.11;100.00
4273;BME280;63887;53.656;9.810;2023-02-19T03:40:11;101626.47;;;3.14;100.00
4273;BME280;63887;53.656;9.810;2023-02-19T03:42:41;101623.00;;;3.12;100.00
4273;BME280;63887;53.656;9.810;2023-02-19T03:45:17;101616.97;;;3.11;100.00
4273;BME280;63887;53.656;9.810;2023-02-19T03:47:47;101623.00;;;3.12;100.00
4273;BME280;63887;53.656;9.810;2023-02-19T03:50:20;101626.47;;;3.11;100.00
4273;BME280;63887;53.656;9.810;2023-02-19T03:52:50;101624.75;;;3.11;100.00
4273;BME280;63887;53.656;9.810;2023-02-19T03:55:20;101623.88;;;3.11;100.00
4273;BME280;63887;53.656;9.810;2023-02-19T03:57:52;101628.28;;;3.06;100.00
4273;BME280;63887;53.656;9.810;2023-02-19T04:00:22;101636.06;;;3.06;100.00
4273;BME280;63887;53.656;9.810;2023-02-19T04:02:52;101636.94;;;3.05;100.00
4273;BME280;63887;53.656;9.810;2023-02-19T04:05:23;101639.59;;;2.98;100.00
4273;BME280;63887;53.656;9.810;2023-02-19T04:07:53;101646.47;;;3.01;100.00
4273;BME280;63887;53.656;9.810;2023-02-19T04:10:26;101640.44;;;2.97;100.00
4273;BME280;63887;53.656;9.810;2023-02-19T04:12:54;101647.41;;;2.91;100.00
4273;BME280;63887;53.656;9.810;2023-02-19T04:15:23;101657.78;;;2.91;100.00
4273;BME280;63887;53.656;9.810;2023-02-19T04:17:53;101652.69;;;2.83;100.00
4273;BME280;63887;53.656;9.810;2023-02-19T04:20:20;101659.59;;;2.80;100.00
4273;BME280;63887;53.656;9.810;2023-02-19T04:22:48;101669.19;;;2.72;100.00
4273;BME280;63887;53.656;9.810;2023-02-19T04:25:15;101673.50;;;2.71;100.00
4273;BME280;63887;53.656;9.810;2023-02-19T04:27:41;101675.25;;;2.66;100.00
4273;BME280;63887;53.656;9.810;2023-02-19T04:30:10;101683.06;;;2.61;100.00
4273;BME280;63887;53.656;9.810;2023-02-19T04:32:37;101689.97;;;2.59;100.00
4273;BME280;63887;53.656;9.810;2023-02-19T04:35:03;101689.16;;;2.54;100.00
4273;BME280;63887;53.656;9.810;2023-02-19T04:37:30;101690.03;;;2.53;100.00
4273;BME280;63887;53.656;9.810;2023-02-19T04:39:57;101702.97;;;2.56;100.00
4273;BME280;63887;53.656;9.810;2023-02-19T04:42:24;101703.81;;;2.57;100.00
4273;BME280;63887;53.656;9.810;2023-02-19T04:44:50;101712.44;;;2.59;100.00
4273;BME280;63887;53.656;9.810;2023-02-19T04:47:16;101708.97;;;2.58;100.00
4273;BME280;63887;53.656;9.810;2023-02-19T04:49:43;101706.41;;;2.58;100.00
4273;BME280;63887;53.656;9.810;2023-02-19T04:52:09;101708.13;;;2.56;100.00
4273;BME280;63887;53.656;9.810;2023-02-19T04:54:36;101707.25;;;2.60;100.00
4273;BME280;63887;53.656;9.810;2023-02-19T04:57:03;101711.53;;;2.61;100.00
4273;BME280;63887;53.656;9.810;2023-02-19T04:59:30;101715.03;;;2.59;100.00
4273;BME280;63887;53.656;9.810;2023-02-19T05:01:56;101713.31;;;2.56;100.00
4273;BME280;63887;53.656;9.810;2023-02-19T05:04:23;101718.50;;;2.55;100.00
4273;BME280;63887;53.656;9.810;2023-02-19T05:06:50;101723.69;;;2.53;100.00
4273;BME280;63887;53.656;9.810;2023-02-19T05:09:16;101722.84;;;2.50;100.00
4273;BME280;63887;53.656;9.810;2023-02-19T05:11:43;101720.25;;;2.48;100.00
4273;BME280;63887;53.656;9.810;2023-02-19T05:14:10;101719.38;;;2.49;100.00
4273;BME280;63887;53.656;9.810;2023-02-19T05:16:37;101716.81;;;2.49;100.00
4273;BME280;63887;53.656;9.810;2023-02-19T05:19:03;101722.03;;;2.43;100.00
4273;BME280;63887;53.656;9.810;2023-02-19T05:21:29;101728.09;;;2.39;100.00
4273;BME280;63887;53.656;9.810;2023-02-19T05:23:56;101728.94;;;2.38;100.00
4273;BME280;63887;53.656;9.810;2023-02-19T05:26:22;101728.97;;;2.35;100.00
4273;BME280;63887;53.656;9.810;2023-02-19T05:28:50;101740.19;;;2.34;100.00
4273;BME280;63887;53.656;9.810;2023-02-19T05:31:20;101741.09;;;2.28;100.00
4273;BME280;63887;53.656;9.810;2023-02-19T05:33:46;101757.47;;;2.29;100.00
4273;BME280;63887;53.656;9.810;2023-02-19T05:36:15;101749.72;;;2.27;100.00
4273;BME280;63887;53.656;9.810;2023-02-19T05:38:42;101754.94;;;2.24;100.00
4273;BME280;63887;53.656;9.810;2023-02-19T05:41:09;101753.19;;;2.22;100.00
4273;BME280;63887;53.656;9.810;2023-02-19T05:43:35;101765.25;;;2.29;100.00
4273;BME280;63887;53.656;9.810;2023-02-19T05:46:02;101758.34;;;2.28;100.00
4273;BME280;63887;53.656;9.810;2023-02-19T05:48:29;101760.09;;;2.27;100.00
4273;BME280;63887;53.656;9.810;2023-02-19T05:50:59;101763.53;;;2.26;100.00
4273;BME280;63887;53.656;9.810;2023-02-19T05:53:26;101771.31;;;2.25;100.00
4273;BME280;63887;53.656;9.810;2023-02-19T05:55:52;101769.59;;;2.19;100.00
4273;BME280;63887;53.656;9.810;2023-02-19T05:58:18;101775.66;;;2.14;100.00
4273;BME280;63887;53.656;9.810;2023-02-19T06:00:45;101780.84;;;2.12;100.00
4273;BME280;63887;53.656;9.810;2023-02-19T06:03:11;101790.34;;;2.12;100.00
4273;BME280;63887;53.656;9.810;2023-02-19T06:05:39;101790.34;;;2.07;100.00
4273;BME280;63887;53.656;9.810;2023-02-19T06:08:05;101802.41;;;2.05;100.00
4273;BME280;63887;53.656;9.810;2023-02-19T06:10:31;101809.34;;;2.01;100.00
4273;BME280;63887;53.656;9.810;2023-02-19T06:12:58;101809.34;;;2.01;100.00
4273;BME280;63887;53.656;9.810;2023-02-19T06:15:24;101812.81;;;1.99;100.00
4273;BME280;63887;53.656;9.810;2023-02-19T06:17:50;101824.00;;;2.01;100.00
4273;BME280;63887;53.656;9.810;2023-02-19T06:20:17;101830.91;;;1.99;100.00
4273;BME280;63887;53.656;9.810;2023-02-19T06:22:44;101842.13;;;2.01;100.00
4273;BME280;63887;53.656;9.810;2023-02-19T06:25:11;101846.41;;;2.03;100.00
4273;BME280;63887;53.656;9.810;2023-02-19T06:27:37;101851.59;;;2.02;100.00
4273;BME280;63887;53.656;9.810;2023-02-19T06:30:04;101853.31;;;2.03;100.00
4273;BME280;63887;53.656;9.810;2023-02-19T06:32:30;101859.34;;;2.03;100.00
4273;BME280;63887;53.656;9.810;2023-02-19T06:34:56;101864.53;;;2.03;100.00
4273;BME280;63887;53.656;9.810;2023-02-19T06:37:23;101865.41;;;2.04;100.00
4273;BME280;63887;53.656;9.810;2023-02-19T06:39:50;101872.31;;;2.02;100.00
4273;BME280;63887;53.656;9.810;2023-02-19T06:42:17;101879.22;;;2.00;100.00
4273;BME280;63887;53.656;9.810;2023-02-19T06:44:43;101880.06;;;2.02;100.00
4273;BME280;63887;53.656;9.810;2023-02-19T06:47:10;101891.25;;;2.07;100.00
4273;BME280;63887;53.656;9.810;2023-02-19T06:49:37;101890.41;;;2.03;100.00
4273;BME280;63887;53.656;9.810;2023-02-19T06:52:03;101893.00;;;1.97;100.00
4273;BME280;63887;53.656;9.810;2023-02-19T06:54:30;101901.66;;;1.95;100.00
4273;BME280;63887;53.656;9.810;2023-02-19T06:56:58;101898.16;;;1.93;100.00
4273;BME280;63887;53.656;9.810;2023-02-19T06:59:25;101906.81;;;1.92;100.00
4273;BME280;63887;53.656;9.810;2023-02-19T07:01:51;101911.09;;;1.93;100.00
4273;BME280;63887;53.656;9.810;2023-02-19T07:04:17;101912.84;;;1.95;100.00
4273;BME280;63887;53.656;9.810;2023-02-19T07:06:44;101920.63;;;1.94;100.00
4273;BME280;63887;53.656;9.810;2023-02-19T07:09:10;101918.03;;;1.98;100.00
4273;BME280;63887;53.656;9.810;2023-02-19T07:11:37;101924.06;;;2.02;100.00
4273;BME280;63887;53.656;9.810;2023-02-19T07:14:06;101935.28;;;2.01;100.00
4273;BME280;63887;53.656;9.810;2023-02-19T07:16:33;101943.88;;;2.07;100.00
4273;BME280;63887;53.656;9.810;2023-02-19T07:18:59;101944.75;;;2.09;100.00
4273;BME280;63887;53.656;9.810;2023-02-19T07:21:26;101956.84;;;2.11;100.00
4273;BME280;63887;53.656;9.810;2023-02-19T07:23:53;101959.41;;;2.18;100.00
4273;BME280;63887;53.656;9.810;2023-02-19T07:26:19;101974.09;;;2.25;100.00
4273;BME280;63887;53.656;9.810;2023-02-19T07:28:46;101969.75;;;2.32;100.00
4273;BME280;63887;53.656;9.810;2023-02-19T07:31:15;101966.28;;;2.37;100.00
4273;BME280;63887;53.656;9.810;2023-02-19T07:33:43;101974.06;;;2.42;100.00
4273;BME280;63887;53.656;9.810;2023-02-19T07:36:10;101977.50;;;2.44;100.00
4273;BME280;63887;53.656;9.810;2023-02-19T07:38:36;101981.81;;;2.48;100.00
4273;BME280;63887;53.656;9.810;2023-02-19T07:41:03;101992.16;;;2.51;100.00
4273;BME280;63887;53.656;9.810;2023-02-19T07:43:31;101988.72;;;2.48;100.00
4273;BME280;63887;53.656;9.810;2023-02-19T07:45:57;101996.47;;;2.48;100.00
4273;BME280;63887;53.656;9.810;2023-02-19T07:48:25;101997.38;;;2.39;100.00
4273;BME280;63887;53.656;9.810;2023-02-19T07:50:52;102005.13;;;2.33;100.00
4273;BME280;63887;53.656;9.810;2023-02-19T07:53:18;102006.88;;;2.29;100.00
4273;BME280;63887;53.656;9.810;2023-02-19T07:55:44;102006.88;;;2.26;100.00
4273;BME280;63887;53.656;9.810;2023-02-19T07:58:11;102010.31;;;2.25;100.00
4273;BME280;63887;53.656;9.810;2023-02-19T08:00:37;102014.63;;;2.19;100.00
4273;BME280;63887;53.656;9.810;2023-02-19T08:03:04;102023.25;;;2.15;100.00
4273;BME280;63887;53.656;9.810;2023-02-19T08:05:32;102024.09;;;2.23;100.00
4273;BME280;63887;53.656;9.810;2023-02-19T08:07:59;102031.88;;;2.29;100.00
4273;BME280;63887;53.656;9.810;2023-02-19T08:10:26;102021.53;;;2.35;100.00
4273;BME280;63887;53.656;9.810;2023-02-19T08:13:10;102017.22;;;2.45;100.00
4273;BME280;63887;53.656;9.810;2023-02-19T08:15:47;102027.53;;;2.51;100.00
4273;BME280;63887;53.656;9.810;2023-02-19T08:18:14;102024.13;;;2.53;100.00
4273;BME280;63887;53.656;9.810;2023-02-19T08:20:42;102019.78;;;2.58;100.00
4273;BME280;63887;53.656;9.810;2023-02-19T08:23:09;102018.88;;;2.65;100.00
4273;BME280;63887;53.656;9.810;2023-02-19T08:25:36;102022.34;;;2.67;100.00
4273;BME280;63887;53.656;9.810;2023-02-19T08:28:02;102021.50;;;2.70;100.00
4273;BME280;63887;53.656;9.810;2023-02-19T08:30:29;102027.50;;;2.83;100.00
4273;BME280;63887;53.656;9.810;2023-02-19T08:32:56;102037.88;;;2.86;100.00
4273;BME280;63887;53.656;9.810;2023-02-19T08:35:23;102038.69;;;2.98;100.00
4273;BME280;63887;53.656;9.810;2023-02-19T08:37:52;102046.44;;;2.97;99.89
4273;BME280;63887;53.656;9.810;2023-02-19T08:40:19;102053.38;;;3.03;99.63
4273;BME280;63887;53.656;9.810;2023-02-19T08:42:46;102051.59;;;3.09;99.51
4273;BME280;63887;53.656;9.810;2023-02-19T08:45:12;102054.19;;;3.09;100.00
4273;BME280;63887;53.656;9.810;2023-02-19T08:47:39;102058.50;;;3.16;99.92
4273;BME280;63887;53.656;9.810;2023-02-19T08:50:05;102059.34;;;3.20;99.65
4273;BME280;63887;53.656;9.810;2023-02-19T08:52:32;102062.78;;;3.25;99.10
4273;BME280;63887;53.656;9.810;2023-02-19T08:55:00;102074.84;;;3.37;99.18
4273;BME280;63887;53.656;9.810;2023-02-19T08:57:27;102085.19;;;3.40;98.00
4273;BME280;63887;53.656;9.810;2023-02-19T08:59:54;102089.53;;;3.42;98.07
4273;BME280;63887;53.656;9.810;2023-02-19T09:02:21;102099.03;;;3.48;97.89
4273;BME280;63887;53.656;9.810;2023-02-19T09:04:47;102103.31;;;3.50;97.68
4273;BME280;63887;53.656;9.810;2023-02-19T09:07:14;102109.34;;;3.60;97.89
4273;BME280;63887;53.656;9.810;2023-02-19T09:09:40;102107.59;;;3.64;97.57
4273;BME280;63887;53.656;9.810;2023-02-19T09:12:09;102123.06;;;3.82;96.91
4273;BME280;63887;53.656;9.810;2023-02-19T09:14:35;102122.09;;;4.04;95.02
4273;BME280;63887;53.656;9.810;2023-02-19T09:17:03;102121.31;;;3.90;96.14
4273;BME280;63887;53.656;9.810;2023-02-19T09:19:30;102119.50;;;4.01;96.17
4273;BME280;63887;53.656;9.810;2023-02-19T09:21:56;102125.56;;;4.00;96.40
4273;BME280;63887;53.656;9.810;2023-02-19T09:24:23;102124.63;;;4.12;95.55
4273;BME280;63887;53.656;9.810;2023-02-19T09:26:50;102120.28;;;4.18;95.37
4273;BME280;63887;53.656;9.810;2023-02-19T09:29:18;102128.91;;;4.21;95.16
4273;BME280;63887;53.656;9.810;2023-02-19T09:31:45;102128.06;;;4.20;95.71
4273;BME280;63887;53.656;9.810;2023-02-19T09:34:11;102139.22;;;4.30;95.77
4273;BME280;63887;53.656;9.810;2023-02-19T09:36:38;102134.91;;;4.33;95.09
4273;BME280;63887;53.656;9.810;2023-02-19T09:39:05;102141.81;;;4.31;95.22
4273;BME280;63887;53.656;9.810;2023-02-19T09:41:32;102147.75;;;4.50;92.58
4273;BME280;63887;53.656;9.810;2023-02-19T09:44:00;102142.59;;;4.47;93.93
4273;BME280;63887;53.656;9.810;2023-02-19T09:46:29;102140.88;;;4.47;94.56
4273;BME280;63887;53.656;9.810;2023-02-19T09:48:58;102135.56;;;4.58;94.27
4273;BME280;63887;53.656;9.810;2023-02-19T09:51:26;102149.28;;;4.75;92.57
4273;BME280;63887;53.656;9.810;2023-02-19T09:53:53;102166.53;;;4.84;88.63
4273;BME280;63887;53.656;9.810;2023-02-19T09:56:21;102166.59;;;4.81;89.11
4273;BME280;63887;53.656;9.810;2023-02-19T09:58:49;102180.47;;;4.78;89.36
4273;BME280;63887;53.656;9.810;2023-02-19T10:01:17;102183.00;;;4.85;88.92
4273;BME280;63887;53.656;9.810;2023-02-19T10:03:45;102186.44;;;4.88;89.22
4273;BME280;63887;53.656;9.810;2023-02-19T10:06:13;102195.19;;;4.79;89.43
4273;BME280;63887;53.656;9.810;2023-02-19T10:08:43;102199.38;;;4.96;88.28
4273;BME280;63887;53.656;9.810;2023-02-19T10:11:10;102203.75;;;4.91;89.03
4273;BME280;63887;53.656;9.810;2023-02-19T10:13:39;102210.69;;;4.92;88.98
4273;BME280;63887;53.656;9.810;2023-02-19T10:16:06;102203.69;;;4.98;85.21
4273;BME280;63887;53.656;9.810;2023-02-19T10:18:39;102209.72;;;5.06;84.37
4273;BME280;63887;53.656;9.810;2023-02-19T10:21:08;102213.88;;;5.24;83.04
4273;BME280;63887;53.656;9.810;2023-02-19T10:23:36;102213.00;;;5.24;81.32
4273;BME280;63887;53.656;9.810;2023-02-19T10:26:04;102224.28;;;5.20;81.93
4273;BME280;63887;53.656;9.810;2023-02-19T10:28:32;102226.91;;;5.21;82.87
4273;BME280;63887;53.656;9.810;2023-02-19T10:30:59;102222.47;;;5.31;82.25
4273;BME280;63887;53.656;9.810;2023-02-19T10:33:25;102225.88;;;5.39;81.83
4273;BME280;63887;53.656;9.810;2023-02-19T10:35:53;102230.16;;;5.43;81.53
4273;BME280;63887;53.656;9.810;2023-02-19T10:38:22;102228.50;;;5.36;81.50
4273;BME280;63887;53.656;9.810;2023-02-19T10:40:56;102237.94;;;5.46;79.98
4273;BME280;63887;53.656;9.810;2023-02-19T10:43:24;102237.06;;;5.47;80.35
4273;BME280;63887;53.656;9.810;2023-02-19T10:45:57;102234.38;;;5.56;79.29
4273;BME280;63887;53.656;9.810;2023-02-19T10:48:27;102229.84;;;5.72;74.02
4273;BME280;63887;53.656;9.810;2023-02-19T10:50:55;102245.44;;;5.75;74.58
4273;BME280;63887;53.656;9.810;2023-02-19T10:53:39;102257.53;;;5.79;73.38
4273;BME280;63887;53.656;9.810;2023-02-19T10:56:06;102256.72;;;5.74;73.43
4273;BME280;63887;53.656;9.810;2023-02-19T10:58:33;102261.91;;;5.76;73.66
4273;BME280;63887;53.656;9.810;2023-02-19T11:01:09;102269.84;;;5.66;74.68
4273;BME280;63887;53.656;9.810;2023-02-19T11:03:35;102279.31;;;5.74;73.01
4273;BME280;63887;53.656;9.810;2023-02-19T11:06:02;102273.34;;;5.65;74.01
4273;BME280;63887;53.656;9.810;2023-02-19T11:08:31;102269.69;;;5.79;74.92
4273;BME280;63887;53.656;9.810;2023-02-19T11:11:00;102271.34;;;5.87;75.26
4273;BME280;63887;53.656;9.810;2023-02-19T11:13:27;102271.28;;;5.96;74.98
4273;BME280;63887;53.656;9.810;2023-02-19T11:15:56;102273.78;;;6.04;76.04
4273;BME280;63887;53.656;9.810;2023-02-19T11:18:23;102265.94;;;6.07;75.32
4273;BME280;63887;53.656;9.810;2023-02-19T11:20:51;102263.19;;;6.19;74.49
4273;BME280;63887;53.656;9.810;2023-02-19T11:23:19;102277.00;;;6.26;75.25
4273;BME280;63887;53.656;9.810;2023-02-19T11:25:47;102281.28;;;6.32;74.83
4273;BME280;63887;53.656;9.810;2023-02-19T11:28:25;102290.88;;;6.28;75.36
4273;BME280;63887;53.656;9.810;2023-02-19T11:30:53;102283.75;;;6.42;72.99
4273;BME280;63887;53.656;9.810;2023-02-19T11:33:21;102279.56;;;6.29;74.66
4273;BME280;63887;53.656;9.810;2023-02-19T11:35:49;102290.94;;;6.25;74.29
4273;BME280;63887;53.656;9.810;2023-02-19T11:38:17;102288.44;;;6.14;75.13
4273;BME280;63887;53.656;9.810;2023-02-19T11:40:47;102285.88;;;6.08;75.08
4273;BME280;63887;53.656;9.810;2023-02-19T11:43:25;102280.66;;;6.13;73.63
4273;BME280;63887;53.656;9.810;2023-02-19T11:45:58;102284.78;;;6.29;72.68
4273;BME280;63887;53.656;9.810;2023-02-19T11:48:31;102286.47;;;6.33;73.67
4273;BME280;63887;53.656;9.810;2023-02-19T11:51:09;102297.63;;;6.44;70.16
4273;BME280;63887;53.656;9.810;2023-02-19T11:53:42;102297.75;;;6.34;70.26
4273;BME280;63887;53.656;9.810;2023-02-19T11:56:13;102291.81;;;6.22;70.05
4273;BME280;63887;53.656;9.810;2023-02-19T12:01:29;102285.13;;;6.02;72.23
4273;BME280;63887;53.656;9.810;2023-02-19T12:04:06;102283.28;;;6.08;70.64
4273;BME280;63887;53.656;9.810;2023-02-19T12:06:44;102277.19;;;6.12;70.12
4273;BME280;63887;53.656;9.810;2023-02-19T12:09:27;102288.50;;;6.07;69.54
4273;BME280;63887;53.656;9.810;2023-02-19T12:12:03;102287.63;;;6.11;68.84
4273;BME280;63887;53.656;9.810;2023-02-19T12:14:39;102282.31;;;6.17;68.66
4273;BME280;63887;53.656;9.810;2023-02-19T12:17:10;102284.16;;;6.09;69.61
4273;BME280;63887;53.656;9.810;2023-02-19T12:19:42;102292.72;;;6.20;69.89
4273;BME280;63887;53.656;9.810;2023-02-19T12:25:13;102304.63;;;6.38;69.49
4273;BME280;63887;53.656;9.810;2023-02-19T12:27:45;102298.47;;;6.46;72.44
4273;BME280;63887;53.656;9.810;2023-02-19T12:33:23;102317.13;;;6.79;71.84
4273;BME280;63887;53.656;9.810;2023-02-19T12:35:57;102312.41;;;7.05;68.92
4273;BME280;63887;53.656;9.810;2023-02-19T12:38:27;102318.34;;;7.15;70.65
4273;BME280;63887;53.656;9.810;2023-02-19T12:41:10;102310.53;;;7.12;70.22
4273;BME280;63887;53.656;9.810;2023-02-19T12:43:42;102304.56;;;7.05;70.96
4273;BME280;63887;53.656;9.810;2023-02-19T12:46:13;102303.13;;;6.86;71.21
4273;BME280;63887;53.656;9.810;2023-02-19T12:48:43;102302.50;;;6.70;69.97
4273;BME280;63887;53.656;9.810;2023-02-19T12:51:14;102303.31;;;6.74;69.74
4273;BME280;63887;53.656;9.810;2023-02-19T12:53:44;102305.09;;;6.69;69.74
4273;BME280;63887;53.656;9.810;2023-02-19T12:56:13;102292.13;;;6.64;70.84
4273;BME280;63887;53.656;9.810;2023-02-19T12:58:43;102288.63;;;6.65;72.70
4273;BME280;63887;53.656;9.810;2023-02-19T13:01:13;102284.31;;;6.64;72.97
4273;BME280;63887;53.656;9.810;2023-02-19T13:03:43;102282.50;;;6.69;70.90
4273;BME280;63887;53.656;9.810;2023-02-19T13:06:17;102281.53;;;6.76;70.07
4273;BME280;63887;53.656;9.810;2023-02-19T13:08:46;102280.66;;;6.77;69.90
4273;BME280;63887;53.656;9.810;2023-02-19T13:11:15;102272.00;;;6.75;70.29
4273;BME280;63887;53.656;9.810;2023-02-19T13:13:44;102282.31;;;6.81;71.05
4273;BME280;63887;53.656;9.810;2023-02-19T13:16:12;102276.88;;;6.97;71.14
4273;BME280;63887;53.656;9.810;2023-02-19T13:18:40;102280.91;;;7.17;70.93
4273;BME280;63887;53.656;9.810;2023-02-19T13:21:07;102275.75;;;7.13;72.37